WZZ8080 LRBV-LHBP
Flight info
| Callsign | WZZ8080 |
|---|---|
| Flight time | N/A |
| Altitude | 34000 |
| Route | EBCOL DCT COZMU DCT TOMET DCT BUDOP DCT KEZAL |
| Aircraft | A320/M-SDE1E2E3FGIJ1J4RWXY/LB1 |
Departure
| Time | N/A |
|---|---|
| Airport | Brașov-Ghimbav International Airport (LRBV) |
Arrival
| Time | 2026-05-06 15:24 |
|---|---|
| Airport | Budapest Liszt Ferenc International Airport (LHBP) |
| Time | Latitude | Longitude | Altitude | Speed | Heading |
|---|---|---|---|---|---|
| 2026-05-06 14:54 | 46.66940 | 22.03687 | 33974 ft | 417 kts | 273° |
| 2026-05-06 14:54 | 46.67092 | 21.99474 | 33976 ft | 417 kts | 273° |
| 2026-05-06 14:55 | 46.67391 | 21.91066 | 33972 ft | 416 kts | 273° |
| 2026-05-06 14:55 | 46.67683 | 21.82653 | 33970 ft | 416 kts | 273° |
| 2026-05-06 14:56 | 46.67962 | 21.74255 | 33969 ft | 415 kts | 272° |
| 2026-05-06 14:56 | 46.68239 | 21.65868 | 33967 ft | 414 kts | 272° |
| 2026-05-06 14:57 | 46.68504 | 21.57490 | 33964 ft | 414 kts | 272° |
| 2026-05-06 14:57 | 46.69306 | 21.49234 | 33957 ft | 413 kts | 287° |
| 2026-05-06 14:58 | 46.71764 | 21.41666 | 33957 ft | 414 kts | 297° |
| 2026-05-06 14:58 | 46.74535 | 21.34300 | 33953 ft | 414 kts | 297° |
| 2026-05-06 14:59 | 46.77284 | 21.26952 | 33948 ft | 414 kts | 296° |
| 2026-05-06 14:59 | 46.80047 | 21.19548 | 33941 ft | 414 kts | 296° |
| 2026-05-06 15:00 | 46.82802 | 21.12158 | 33943 ft | 414 kts | 296° |
| 2026-05-06 15:00 | 46.85553 | 21.04745 | 33762 ft | 415 kts | 296° |
| 2026-05-06 15:00 | 46.86924 | 21.01052 | 33193 ft | 414 kts | 296° |
| 2026-05-06 15:01 | 46.88303 | 20.97338 | 32404 ft | 416 kts | 296° |
| 2026-05-06 15:01 | 46.89683 | 20.93614 | 31573 ft | 419 kts | 296° |
| 2026-05-06 15:01 | 46.91072 | 20.89843 | 30729 ft | 422 kts | 296° |
| 2026-05-06 15:01 | 46.92506 | 20.86100 | 30046 ft | 422 kts | 298° |
| 2026-05-06 15:02 | 46.94030 | 20.82441 | 29389 ft | 420 kts | 300° |
| 2026-05-06 15:02 | 46.95599 | 20.78857 | 28721 ft | 417 kts | 301° |
| 2026-05-06 15:02 | 46.97183 | 20.75312 | 28063 ft | 414 kts | 301° |
| 2026-05-06 15:02 | 46.98755 | 20.71790 | 27432 ft | 411 kts | 301° |
| 2026-05-06 15:03 | 47.00303 | 20.68286 | 26807 ft | 409 kts | 300° |
| 2026-05-06 15:03 | 47.01818 | 20.64807 | 26204 ft | 406 kts | 300° |
| 2026-05-06 15:03 | 47.03329 | 20.61292 | 25604 ft | 404 kts | 300° |
| 2026-05-06 15:03 | 47.04817 | 20.57803 | 25029 ft | 403 kts | 300° |
| 2026-05-06 15:04 | 47.06294 | 20.54331 | 24485 ft | 400 kts | 300° |
| 2026-05-06 15:04 | 47.07767 | 20.50870 | 23947 ft | 399 kts | 300° |
| 2026-05-06 15:04 | 47.09236 | 20.47421 | 23407 ft | 398 kts | 300° |
| 2026-05-06 15:04 | 47.10700 | 20.43982 | 22778 ft | 397 kts | 300° |
| 2026-05-06 15:05 | 47.12163 | 20.40549 | 22166 ft | 396 kts | 300° |
| 2026-05-06 15:05 | 47.13620 | 20.37121 | 21566 ft | 396 kts | 299° |
| 2026-05-06 15:05 | 47.15072 | 20.33692 | 20984 ft | 395 kts | 299° |
| 2026-05-06 15:05 | 47.16523 | 20.30258 | 20409 ft | 395 kts | 299° |
| 2026-05-06 15:06 | 47.17971 | 20.26834 | 19847 ft | 395 kts | 299° |
| 2026-05-06 15:06 | 47.19419 | 20.23411 | 19362 ft | 393 kts | 299° |
| 2026-05-06 15:06 | 47.20854 | 20.20013 | 18882 ft | 390 kts | 299° |
| 2026-05-06 15:06 | 47.22285 | 20.16623 | 18415 ft | 388 kts | 299° |
| 2026-05-06 15:07 | 47.23702 | 20.13263 | 17914 ft | 385 kts | 299° |
| 2026-05-06 15:07 | 47.25102 | 20.09933 | 17378 ft | 382 kts | 299° |
| 2026-05-06 15:07 | 47.26488 | 20.06628 | 16855 ft | 378 kts | 298° |
| 2026-05-06 15:07 | 47.27861 | 20.03345 | 16405 ft | 373 kts | 299° |
| 2026-05-06 15:08 | 47.29205 | 20.00126 | 15977 ft | 367 kts | 298° |
| 2026-05-06 15:08 | 47.30530 | 19.96946 | 15552 ft | 361 kts | 298° |
| 2026-05-06 15:08 | 47.31833 | 19.93812 | 15135 ft | 356 kts | 298° |
| 2026-05-06 15:08 | 47.33121 | 19.90719 | 14722 ft | 352 kts | 298° |
| 2026-05-06 15:09 | 47.34391 | 19.87661 | 14323 ft | 347 kts | 298° |
| 2026-05-06 15:09 | 47.35637 | 19.84657 | 13988 ft | 341 kts | 299° |
| 2026-05-06 15:09 | 47.36841 | 19.81761 | 13659 ft | 335 kts | 298° |
| 2026-05-06 15:09 | 47.38075 | 19.78791 | 13291 ft | 330 kts | 298° |
| 2026-05-06 15:10 | 47.39263 | 19.75930 | 12960 ft | 324 kts | 298° |
| 2026-05-06 15:10 | 47.40427 | 19.73122 | 12696 ft | 317 kts | 298° |
| 2026-05-06 15:10 | 47.41561 | 19.70376 | 12436 ft | 311 kts | 298° |
| 2026-05-06 15:10 | 47.42669 | 19.67686 | 12132 ft | 307 kts | 298° |
| 2026-05-06 15:11 | 47.43777 | 19.64993 | 11832 ft | 303 kts | 298° |
| 2026-05-06 15:11 | 47.44860 | 19.62359 | 11563 ft | 299 kts | 298° |
| 2026-05-06 15:11 | 47.45935 | 19.59751 | 11313 ft | 295 kts | 298° |
| 2026-05-06 15:11 | 47.47000 | 19.57187 | 11063 ft | 290 kts | 298° |
| 2026-05-06 15:12 | 47.48052 | 19.54664 | 10816 ft | 286 kts | 298° |
| 2026-05-06 15:12 | 47.49086 | 19.52186 | 10572 ft | 282 kts | 298° |
| 2026-05-06 15:12 | 47.50111 | 19.49734 | 10336 ft | 278 kts | 298° |
| 2026-05-06 15:12 | 47.51130 | 19.47313 | 10089 ft | 275 kts | 298° |
| 2026-05-06 15:13 | 47.52133 | 19.44933 | 9846 ft | 272 kts | 298° |
| 2026-05-06 15:13 | 47.53133 | 19.42567 | 9603 ft | 270 kts | 298° |
| 2026-05-06 15:13 | 47.54124 | 19.40227 | 9340 ft | 268 kts | 298° |
| 2026-05-06 15:13 | 47.55111 | 19.37903 | 9079 ft | 266 kts | 298° |
| 2026-05-06 15:14 | 47.56096 | 19.35588 | 8815 ft | 264 kts | 298° |
| 2026-05-06 15:14 | 47.56982 | 19.33244 | 8569 ft | 259 kts | 292° |
| 2026-05-06 15:14 | 47.57759 | 19.30860 | 8309 ft | 255 kts | 291° |
| 2026-05-06 15:14 | 47.58518 | 19.28495 | 8058 ft | 253 kts | 291° |
| 2026-05-06 15:15 | 47.59274 | 19.26151 | 7807 ft | 250 kts | 291° |
| 2026-05-06 15:15 | 47.60020 | 19.23836 | 7563 ft | 248 kts | 291° |
| 2026-05-06 15:15 | 47.60767 | 19.21541 | 7319 ft | 246 kts | 291° |
| 2026-05-06 15:15 | 47.61511 | 19.19266 | 7076 ft | 244 kts | 291° |
| 2026-05-06 15:16 | 47.62249 | 19.17002 | 6834 ft | 243 kts | 291° |
| 2026-05-06 15:16 | 47.62986 | 19.14767 | 6601 ft | 240 kts | 291° |
| 2026-05-06 15:16 | 47.63717 | 19.12567 | 6405 ft | 236 kts | 291° |
| 2026-05-06 15:16 | 47.64437 | 19.10418 | 6220 ft | 230 kts | 291° |
| 2026-05-06 15:17 | 47.65144 | 19.08310 | 6011 ft | 225 kts | 290° |
| 2026-05-06 15:17 | 47.65823 | 19.06246 | 5806 ft | 219 kts | 286° |
| 2026-05-06 15:17 | 47.66001 | 19.04138 | 5609 ft | 201 kts | 252° |
| 2026-05-06 15:17 | 47.65484 | 19.02279 | 5372 ft | 193 kts | 238° |
| 2026-05-06 15:18 | 47.64788 | 19.00622 | 5135 ft | 190 kts | 224° |
| 2026-05-06 15:18 | 47.63667 | 18.99757 | 4933 ft | 186 kts | 186° |
| 2026-05-06 15:18 | 47.62371 | 18.99994 | 4756 ft | 191 kts | 169° |
| 2026-05-06 15:18 | 47.61091 | 19.00534 | 4567 ft | 192 kts | 167° |
| 2026-05-06 15:19 | 47.59818 | 19.01127 | 4358 ft | 191 kts | 166° |
| 2026-05-06 15:19 | 47.58555 | 19.01733 | 4155 ft | 190 kts | 166° |
| 2026-05-06 15:19 | 47.57305 | 19.02363 | 3947 ft | 191 kts | 160° |
| 2026-05-06 15:19 | 47.56239 | 19.03572 | 3722 ft | 198 kts | 139° |
| 2026-05-06 15:20 | 47.55317 | 19.05083 | 3498 ft | 197 kts | 137° |
| 2026-05-06 15:20 | 47.54406 | 19.06580 | 3209 ft | 193 kts | 137° |
| 2026-05-06 15:20 | 47.53522 | 19.08024 | 2946 ft | 185 kts | 138° |
| 2026-05-06 15:20 | 47.52683 | 19.09393 | 2719 ft | 174 kts | 138° |
| 2026-05-06 15:21 | 47.51904 | 19.10663 | 2514 ft | 157 kts | 139° |
| 2026-05-06 15:21 | 47.51200 | 19.11807 | 2308 ft | 147 kts | 140° |
| 2026-05-06 15:21 | 47.50520 | 19.12910 | 2113 ft | 143 kts | 139° |
| 2026-05-06 15:21 | 47.49854 | 19.13989 | 1927 ft | 143 kts | 140° |
| 2026-05-06 15:22 | 47.49182 | 19.15085 | 1756 ft | 143 kts | 140° |
| 2026-05-06 15:22 | 47.48520 | 19.16171 | 1595 ft | 142 kts | 141° |
| 2026-05-06 15:22 | 47.47854 | 19.17246 | 1367 ft | 143 kts | 140° |
| 2026-05-06 15:22 | 47.47176 | 19.18347 | 1133 ft | 146 kts | 140° |
| 2026-05-06 15:23 | 47.46501 | 19.19450 | 981 ft | 143 kts | 141° |
| 2026-05-06 15:23 | 47.45836 | 19.20517 | 765 ft | 141 kts | 139° |
| 2026-05-06 15:23 | 47.45174 | 19.21594 | 618 ft | 142 kts | 140° |
| 2026-05-06 15:23 | 47.44510 | 19.22658 | 457 ft | 133 kts | 134° |
| 2026-05-06 15:24 | 47.43989 | 19.23507 | 455 ft | 87 kts | 132° |
| 2026-05-06 15:24 | 47.43685 | 19.23998 | 453 ft | 51 kts | 132° |
| 2026-05-06 15:24 | 47.43452 | 19.24374 | 452 ft | 48 kts | 132° |
| 2026-05-06 15:24 | 47.43242 | 19.24712 | 456 ft | 40 kts | 132° |
| 2026-05-06 15:25 | 47.43114 | 19.24918 | 457 ft | 14 kts | 131° |
| 2026-05-06 15:25 | 47.43107 | 19.25058 | 457 ft | 15 kts | 63° |
| 2026-05-06 15:25 | 47.43167 | 19.25151 | 457 ft | 12 kts | 42° |
| 2026-05-06 15:25 | 47.43220 | 19.25222 | 457 ft | 10 kts | 42° |
| 2026-05-06 15:26 | 47.43279 | 19.25301 | 457 ft | 13 kts | 42° |
| 2026-05-06 15:26 | 47.43349 | 19.25394 | 457 ft | 14 kts | 42° |
| 2026-05-06 15:26 | 47.43389 | 19.25447 | 457 ft | 11 kts | 42° |
| 2026-05-06 15:26 | 47.43463 | 19.25547 | 457 ft | 10 kts | 42° |
| 2026-05-06 15:27 | 47.43518 | 19.25621 | 457 ft | 9 kts | 43° |
| 2026-05-06 15:27 | 47.43560 | 19.25681 | 457 ft | 7 kts | 49° |
| 2026-05-06 15:27 | 47.43588 | 19.25719 | 457 ft | 9 kts | 41° |
| 2026-05-06 15:27 | 47.43660 | 19.25812 | 457 ft | 12 kts | 42° |
| 2026-05-06 15:28 | 47.43712 | 19.25881 | 457 ft | 9 kts | 42° |
| 2026-05-06 15:28 | 47.43738 | 19.25933 | 457 ft | 10 kts | 76° |
| 2026-05-06 15:28 | 47.43703 | 19.26024 | 457 ft | 11 kts | 133° |
| 2026-05-06 15:28 | 47.43675 | 19.26131 | 457 ft | 12 kts | 89° |
| 2026-05-06 15:29 | 47.43678 | 19.26232 | 457 ft | 10 kts | 87° |
| 2026-05-06 15:29 | 47.43675 | 19.26330 | 457 ft | 8 kts | 109° |